Time;durP1;ratioP1;P1;durP2;ratioP2;P2;SDS_P1;SDS_P2;PMS_P1;PMS_P2;Temp;Humidity;BMP_temperature;BMP_pressure;BME280_temperature;BME280_humidity;BME280_pressure;Samples;Min_cycle;Max_cycle;Signal;HPM_P1;HPM_P2
2021/08/16 00:00:47;;;;;;;6.57;2.53;;;;;;;18.98;58.43;99287.16;10440240;28;20529;-63
2021/08/16 00:05:48;;;;;;;4.63;2.53;;;;;;;19.04;58.55;99289.19;10406407;28;1187534;-63
2021/08/16 00:10:50;;;;;;;7.78;2.65;;;;;;;18.90;58.74;99282.66;10451865;28;20049;-63
2021/08/16 00:15:52;;;;;;;10.77;2.70;;;;;;;18.67;59.53;99291.34;10451943;28;20092;-63
2021/08/16 00:20:54;;;;;;;8.63;2.58;;;;;;;18.65;59.27;99270.28;10450559;28;20132;-63
2021/08/16 00:25:56;;;;;;;5.72;2.70;;;;;;;18.64;59.26;99271.28;10451673;28;20120;-63
2021/08/16 00:30:57;;;;;;;4.80;2.63;;;;;;;18.75;59.30;99283.44;10451125;28;20164;-63
2021/08/16 00:36:00;;;;;;;7.50;2.80;;;;;;;18.71;59.61;99282.09;10450152;28;20045;-63
2021/08/16 00:41:02;;;;;;;9.20;3.30;;;;;;;18.74;59.40;99282.59;10465729;28;20057;-63
2021/08/16 00:46:05;;;;;;;8.75;2.90;;;;;;;18.98;59.31;99298.59;10448796;28;20131;-63
2021/08/16 00:51:09;;;;;;;8.43;3.20;;;;;;;19.03;59.23;99300.78;10433624;28;20496;-63
2021/08/16 00:56:10;;;;;;;9.35;3.72;;;;;;;19.23;58.64;99295.06;10450638;28;20136;-63
2021/08/16 01:01:12;;;;;;;7.85;3.90;;;;;;;19.23;59.18;99294.22;10449231;28;20072;-63
2021/08/16 01:06:14;;;;;;;8.65;3.90;;;;;;;19.32;59.10;99315.28;10449479;28;20502;-63
2021/08/16 01:11:19;;;;;;;8.52;4.15;;;;;;;19.43;59.18;99312.34;10449616;28;20080;-63
2021/08/16 01:16:21;;;;;;;8.45;4.20;;;;;;;19.57;58.69;99320.63;10448581;28;20065;-63
2021/08/16 01:21:23;;;;;;;8.90;4.82;;;;;;;19.67;58.53;99322.16;10448860;28;20060;-63
2021/08/16 01:26:26;;;;;;;14.23;5.90;;;;;;;19.75;58.09;99327.47;10448620;28;20088;-63
2021/08/16 01:31:27;;;;;;;18.38;5.93;;;;;;;19.89;57.94;99320.69;10438798;28;20092;-63
2021/08/16 01:36:29;;;;;;;14.35;6.30;;;;;;;19.85;57.81;99329.97;10428296;28;20060;-63
2021/08/16 01:41:31;;;;;;;13.43;5.90;;;;;;;19.97;57.60;99323.38;10449091;28;20049;-63
2021/08/16 01:46:33;;;;;;;13.88;5.97;;;;;;;19.97;57.28;99328.69;10447740;28;20132;-63
2021/08/16 01:51:35;;;;;;;15.43;7.00;;;;;;;19.95;56.98;99315.56;10447306;28;20135;-63
2021/08/16 01:56:38;;;;;;;14.15;6.10;;;;;;;19.94;57.04;99315.75;10447136;28;20409;-63
2021/08/16 02:01:40;;;;;;;19.00;5.95;;;;;;;19.98;56.86;99333.81;10449717;28;20076;-63
2021/08/16 02:06:42;;;;;;;14.50;5.95;;;;;;;19.91;56.68;99324.84;10455740;28;20053;-63
2021/08/16 02:11:43;;;;;;;12.23;5.40;;;;;;;19.81;56.93;99318.88;10455818;28;20045;-63
2021/08/16 02:16:46;;;;;;;16.27;5.50;;;;;;;19.67;57.25;99316.00;10454615;28;20049;-63
2021/08/16 02:21:48;;;;;;;9.15;5.35;;;;;;;19.61;57.13;99317.50;10454672;28;20056;-63
2021/08/16 02:26:50;;;;;;;11.43;5.30;;;;;;;19.46;57.45;99322.59;10454399;28;20466;-63
2021/08/16 02:31:51;;;;;;;9.57;4.70;;;;;;;19.47;57.38;99328.75;10455084;28;20128;-63
2021/08/16 02:36:54;;;;;;;9.77;4.65;;;;;;;19.53;57.23;99332.56;10454887;28;20092;-63
2021/08/16 02:41:56;;;;;;;11.55;5.07;;;;;;;19.46;56.79;99330.56;10453106;28;20045;-63
2021/08/16 02:46:58;;;;;;;10.98;4.97;;;;;;;19.44;56.76;99329.91;10454000;28;20087;-63
2021/08/16 02:52:03;;;;;;;9.48;4.57;;;;;;;19.36;56.52;99334.34;10453848;28;20075;-63
2021/08/16 02:57:05;;;;;;;12.05;4.93;;;;;;;19.29;56.06;99326.22;10453369;28;20493;-63
2021/08/16 03:02:08;;;;;;;8.13;4.30;;;;;;;19.14;56.14;99341.09;10452189;28;20457;-63
2021/08/16 03:07:10;;;;;;;10.57;4.10;;;;;;;19.04;55.24;99340.38;10447750;28;20140;-63
2021/08/16 03:12:12;;;;;;;11.18;4.22;;;;;;;19.01;55.37;99353.09;10446300;28;20156;-63
2021/08/16 03:17:14;;;;;;;8.02;3.85;;;;;;;18.84;55.79;99349.53;10445579;28;20128;-63
2021/08/16 03:22:16;;;;;;;6.75;3.38;;;;;;;18.73;53.75;99344.50;10445547;28;20068;-63
2021/08/16 03:27:17;;;;;;;7.63;2.90;;;;;;;18.69;52.49;99343.16;10446171;28;20088;-63
2021/08/16 03:32:19;;;;;;;6.18;2.88;;;;;;;18.71;52.59;99335.88;10444199;28;20224;-63
2021/08/16 03:37:21;;;;;;;9.85;3.03;;;;;;;18.62;51.46;99348.28;10445124;28;20049;-63
2021/08/16 03:42:23;;;;;;;9.48;3.03;;;;;;;18.60;51.36;99362.66;10444694;28;20095;-63
2021/08/16 03:47:25;;;;;;;6.03;2.70;;;;;;;18.58;50.65;99362.78;10445333;28;20383;-63
2021/08/16 03:52:26;;;;;;;6.97;2.50;;;;;;;18.48;50.25;99371.84;10444345;28;20475;-63
2021/08/16 03:57:28;;;;;;;6.57;2.70;;;;;;;18.47;49.51;99365.69;10445097;28;20509;-63
2021/08/16 04:02:30;;;;;;;6.55;2.75;;;;;;;18.46;49.56;99364.03;10445026;28;20041;-63
2021/08/16 04:07:32;;;;;;;7.93;2.67;;;;;;;18.33;49.56;99360.97;10444727;28;20083;-62
2021/08/16 04:12:34;;;;;;;5.97;2.30;;;;;;;18.23;49.45;99362.88;10433836;28;20473;-63
2021/08/16 04:17:35;;;;;;;6.88;2.90;;;;;;;18.25;49.95;99362.72;10435929;28;20045;-63
2021/08/16 04:22:37;;;;;;;6.97;2.45;;;;;;;18.17;49.72;99381.16;10444390;28;20084;-63
2021/08/16 04:27:40;;;;;;;8.13;2.58;;;;;;;18.05;49.60;99380.56;10444813;28;20072;-63
2021/08/16 04:32:42;;;;;;;6.05;2.33;;;;;;;17.87;49.41;99387.69;10444423;28;20052;-63
2021/08/16 04:37:44;;;;;;;5.82;2.50;;;;;;;17.85;49.33;99385.16;10418115;28;20061;-63
2021/08/16 04:42:46;;;;;;;9.52;2.63;;;;;;;17.95;48.70;99392.22;10431228;28;20080;-62
2021/08/16 04:47:48;;;;;;;6.72;2.78;;;;;;;17.95;48.48;99395.69;10443753;28;20135;-63
2021/08/16 04:52:50;;;;;;;7.15;2.38;;;;;;;18.11;48.55;99397.66;10451088;28;20045;-63
2021/08/16 04:57:52;;;;;;;7.50;2.30;;;;;;;18.53;47.63;99401.31;10449751;28;20060;-63
2021/08/16 05:02:56;;;;;;;13.00;2.70;;;;;;;18.52;47.29;99404.97;10451375;28;20044;-63
2021/08/16 05:08:00;;;;;;;8.90;2.50;;;;;;;18.46;47.58;99416.19;10450684;28;20083;-63
2021/08/16 05:13:02;;;;;;;8.00;2.17;;;;;;;18.84;46.48;99414.94;10446531;28;20430;-63
2021/08/16 05:18:04;;;;;;;7.85;2.30;;;;;;;18.98;46.43;99417.00;10449513;28;20053;-63
2021/08/16 05:23:06;;;;;;;6.70;2.20;;;;;;;18.83;46.62;99416.75;10444887;28;20442;-62
2021/08/16 05:28:07;;;;;;;7.13;2.28;;;;;;;18.83;46.37;99424.69;10450842;28;20107;-62
2021/08/16 05:33:09;;;;;;;8.13;2.13;;;;;;;18.83;46.82;99430.00;10450087;28;20053;-62
2021/08/16 05:38:11;;;;;;;6.93;2.58;;;;;;;18.77;46.39;99430.63;10449658;28;20262;-63
2021/08/16 05:43:12;;;;;;;10.23;2.38;;;;;;;18.87;46.24;99436.63;10448828;28;20124;-62
2021/08/16 05:48:17;;;;;;;7.15;2.30;;;;;;;18.79;46.52;99436.59;10425338;28;20132;-62
2021/08/16 05:53:19;;;;;;;6.88;2.15;;;;;;;18.72;46.94;99440.03;10445806;28;20094;-63
2021/08/16 05:58:21;;;;;;;7.07;2.30;;;;;;;18.72;46.58;99438.22;10448826;28;20084;-62
2021/08/16 06:03:23;;;;;;;5.55;1.70;;;;;;;18.60;46.95;99439.44;10447436;28;20111;-62
2021/08/16 06:08:25;;;;;;;4.13;1.67;;;;;;;18.63;46.89;99444.44;10448395;28;20060;-62
2021/08/16 06:13:27;;;;;;;4.65;1.70;;;;;;;18.60;47.14;99442.94;10439995;28;20131;-62
2021/08/16 06:18:29;;;;;;;5.97;1.90;;;;;;;18.48;47.01;99445.97;10447316;28;20085;-63
2021/08/16 06:23:32;;;;;;;7.97;1.85;;;;;;;18.50;47.12;99449.31;10447617;28;20073;-61
2021/08/16 06:28:34;;;;;;;5.53;1.60;;;;;;;18.74;46.88;99452.13;10439712;28;20076;-62
2021/08/16 06:33:41;;;;;;;3.33;1.50;;;;;;;18.87;46.39;99444.59;10429879;28;20092;-62
2021/08/16 06:38:45;;;;;;;4.45;1.63;;;;;;;18.85;46.33;99454.50;10421290;28;20078;-63
2021/08/16 06:43:48;;;;;;;6.13;1.67;;;;;;;18.72;46.99;99445.31;10433578;28;20047;-63
2021/08/16 06:48:49;;;;;;;4.57;1.60;;;;;;;18.61;47.28;99441.09;10430365;28;20132;-62
2021/08/16 06:53:51;;;;;;;6.70;2.10;;;;;;;18.50;47.33;99455.41;10416553;28;20103;-62
2021/08/16 06:58:53;;;;;;;4.40;1.65;;;;;;;18.63;47.46;99453.22;10437016;28;20083;-63
2021/08/16 07:03:56;;;;;;;5.35;1.67;;;;;;;18.82;47.18;99460.13;10432088;28;20125;-62
2021/08/16 07:08:59;;;;;;;12.38;1.90;;;;;;;18.99;46.83;99459.25;10426298;28;20063;-62
2021/08/16 07:14:01;;;;;;;10.98;1.75;;;;;;;19.05;46.61;99463.97;10423419;28;20075;-62
2021/08/16 07:19:02;;;;;;;3.85;1.50;;;;;;;19.02;47.14;99451.03;10408488;28;20096;-63
2021/08/16 07:24:05;;;;;;;6.85;1.73;;;;;;;19.23;46.58;99446.19;10411988;28;20075;-62
2021/08/16 07:29:07;;;;;;;4.53;1.60;;;;;;;19.68;45.74;99459.13;10419313;28;20116;-63
2021/08/16 07:34:09;;;;;;;9.63;2.08;;;;;;;20.43;44.41;99450.16;10418681;28;20048;-62
2021/08/16 07:39:10;;;;;;;4.60;1.60;;;;;;;21.09;43.17;99464.06;10412998;28;20140;-62
2021/08/16 07:44:14;;;;;;;5.75;1.70;;;;;;;22.07;41.31;99468.03;10416410;28;20059;-62
2021/08/16 07:49:16;;;;;;;8.50;2.33;;;;;;;22.99;38.74;99457.16;10428783;28;20124;-62
2021/08/16 07:54:18;;;;;;;5.22;1.80;;;;;;;23.11;38.44;99455.69;10410733;28;20617;-63
2021/08/16 07:59:20;;;;;;;4.50;1.60;;;;;;;22.67;39.65;99450.28;10413333;28;20077;-63
2021/08/16 08:04:22;;;;;;;3.88;1.48;;;;;;;22.67;39.11;99466.28;10429817;28;20077;-62
2021/08/16 08:09:23;;;;;;;4.68;1.65;;;;;;;22.34;39.81;99467.53;10430559;28;20094;-63
2021/08/16 08:14:25;;;;;;;4.97;1.92;;;;;;;21.81;40.89;99471.00;10413250;28;20140;-62
2021/08/16 08:19:27;;;;;;;5.97;1.92;;;;;;;21.69;40.88;99467.06;10418428;28;20053;-62
2021/08/16 08:24:29;;;;;;;4.85;1.77;;;;;;;21.48;41.26;99465.97;10445094;28;20120;-62
2021/08/16 08:29:30;;;;;;;4.75;1.77;;;;;;;21.61;41.22;99474.25;10443648;28;20080;-62
2021/08/16 08:34:32;;;;;;;5.45;1.83;;;;;;;22.17;40.61;99475.81;10452412;28;20052;-61
2021/08/16 08:39:34;;;;;;;5.22;1.83;;;;;;;22.54;39.97;99473.19;10432673;28;20481;-62
2021/08/16 08:44:36;;;;;;;6.10;1.73;;;;;;;23.25;38.89;99473.56;10425108;28;20128;-60
2021/08/16 08:49:38;;;;;;;7.18;1.88;;;;;;;23.93;37.58;99467.06;10447943;28;20084;-61
2021/08/16 08:54:41;;;;;;;5.05;1.80;;;;;;;23.47;38.19;99469.19;10441670;28;20130;-60
2021/08/16 09:00:05;;;;;;;5.85;2.20;;;;;;;23.01;38.84;99470.31;10424641;28;20470;-61
2021/08/16 09:05:08;;;;;;;4.22;1.63;;;;;;;22.43;39.72;99463.78;10429116;28;20493;-60
2021/08/16 09:10:13;;;;;;;6.72;2.05;;;;;;;22.04;41.20;99471.06;10444411;28;20072;-61
2021/08/16 09:15:23;;;;;;;9.88;2.35;;;;;;;21.58;41.68;99477.25;10424280;28;20052;-60
2021/08/16 09:20:29;;;;;;;5.47;2.00;;;;;;;21.83;41.37;99471.66;10436499;28;20087;-60
2021/08/16 09:25:38;;;;;;;7.20;1.98;;;;;;;22.34;40.64;99475.53;10447665;28;20092;-60
2021/08/16 09:30:40;;;;;;;7.00;2.73;;;;;;;22.37;41.11;99479.69;10442433;28;20175;-60
2021/08/16 09:35:50;;;;;;;7.50;2.03;;;;;;;22.48;39.67;99484.56;10440609;28;20132;-59
2021/08/16 09:40:52;;;;;;;7.75;2.20;;;;;;;22.40;40.43;99488.13;10438819;28;20038;-61
2021/08/16 09:45:54;;;;;;;6.57;2.08;;;;;;;21.93;41.44;99479.41;10405641;28;20474;-61
2021/08/16 09:50:56;;;;;;;7.57;2.15;;;;;;;22.00;41.50;99479.56;10407230;28;20046;-60
2021/08/16 09:56:02;;;;;;;8.65;2.35;;;;;;;21.92;41.44;99475.91;10409906;28;20453;-60
2021/08/16 10:01:03;;;;;;;5.75;1.98;;;;;;;22.10;40.88;99475.69;10436282;28;20045;-60
2021/08/16 10:06:07;;;;;;;7.72;2.40;;;;;;;22.11;40.87;99482.66;10408696;28;20049;-62
2021/08/16 10:11:15;;;;;;;8.95;2.35;;;;;;;22.00;41.21;99475.06;10442311;28;20041;-61
2021/08/16 10:16:22;;;;;;;6.28;2.20;;;;;;;22.11;40.95;99469.34;10446084;28;20136;-61
2021/08/16 10:21:25;;;;;;;6.95;2.17;;;;;;;22.17;41.00;99467.84;10437992;28;20052;-61
2021/08/16 10:26:34;;;;;;;7.55;2.50;;;;;;;22.47;40.43;99482.94;10405666;28;20084;-61
2021/08/16 10:31:38;;;;;;;4.75;2.50;;;;;;;22.85;40.28;99473.13;10417192;28;20049;-61
2021/08/16 10:36:40;;;;;;;8.27;2.65;;;;;;;23.17;39.81;99459.47;10442452;28;20053;-60
2021/08/16 10:41:42;;;;;;;5.88;2.45;;;;;;;23.20;39.91;99451.09;10445307;28;20127;-61
2021/08/16 10:46:59;;;;;;;7.00;2.47;;;;;;;23.58;38.87;99450.00;10423021;28;20049;-60
2021/08/16 10:52:03;;;;;;;7.78;3.03;;;;;;;23.76;39.16;99466.47;10402382;28;20045;-60
2021/08/16 10:57:05;;;;;;;7.60;2.13;;;;;;;23.39;39.88;99466.56;10422515;28;20112;-59
2021/08/16 11:02:07;;;;;;;9.57;2.50;;;;;;;23.61;39.19;99451.50;10438185;28;20076;-60
2021/08/16 11:07:12;;;;;;;8.27;2.00;;;;;;;23.81;38.93;99442.69;10426765;28;20053;-60
2021/08/16 11:12:13;;;;;;;6.53;2.38;;;;;;;24.44;37.73;99439.28;10414211;28;20104;-60
2021/08/16 11:17:25;;;;;;;11.18;2.38;;;;;;;24.49;37.17;99441.38;10453913;28;20088;-60
2021/08/16 11:22:28;;;;;;;8.85;2.40;;;;;;;24.52;37.24;99433.78;10444004;28;20056;-60
2021/08/16 11:27:29;;;;;;;6.68;2.45;;;;;;;24.34;37.79;99420.06;10409514;28;20153;-61
2021/08/16 11:32:36;;;;;;;7.53;2.40;;;;;;;24.85;36.95;99421.53;10404442;28;20049;-60
2021/08/16 11:37:41;;;;;;;8.88;2.33;;;;;;;24.55;37.11;99409.31;10431709;28;20084;-61
2021/08/16 11:42:44;;;;;;;7.63;2.30;;;;;;;24.31;37.79;99412.41;10441369;28;20041;-60
2021/08/16 11:47:50;;;;;;;7.55;2.20;;;;;;;24.20;37.95;99392.41;10465311;28;20106;-60
2021/08/16 11:52:54;;;;;;;4.95;2.05;;;;;;;24.37;37.81;99397.47;10465308;28;20057;-62
2021/08/16 11:58:00;;;;;;;7.57;2.58;;;;;;;23.82;37.86;99404.28;10433220;28;20128;-61
2021/08/16 12:03:03;;;;;;;5.53;2.17;;;;;;;23.25;39.24;99404.19;10435494;28;20536;-60
2021/08/16 12:08:06;;;;;;;6.93;1.90;;;;;;;22.86;40.01;99408.94;10461171;28;20055;-59
2021/08/16 12:13:08;;;;;;;6.32;1.88;;;;;;;22.83;40.15;99395.16;10447470;28;20094;-60
2021/08/16 12:18:10;;;;;;;3.85;1.52;;;;;;;23.59;38.75;99386.78;10450627;28;20162;-60
2021/08/16 12:23:32;;;;;;;3.60;1.40;;;;;;;23.86;37.10;99360.16;10466531;28;20472;-60
2021/08/16 12:28:42;;;;;;;5.32;1.38;;;;;;;24.21;37.67;99372.66;10444136;28;20046;-60
2021/08/16 12:33:56;;;;;;;5.30;1.45;;;;;;;24.35;37.14;99362.09;10435863;28;20128;-61
2021/08/16 12:39:10;;;;;;;4.25;1.40;;;;;;;24.43;36.87;99368.09;10449905;28;20087;-60
2021/08/16 12:44:28;;;;;;;7.10;1.40;;;;;;;24.37;36.64;99360.84;10449056;28;20049;-61
2021/08/16 12:49:31;;;;;;;1.98;0.95;;;;;;;24.36;36.95;99363.72;10437737;28;20144;-61
2021/08/16 12:54:34;;;;;;;2.88;1.30;;;;;;;24.09;37.49;99360.84;10423045;28;20169;-60
2021/08/16 12:59:36;;;;;;;5.18;1.20;;;;;;;23.85;37.40;99371.88;10447157;28;20124;-61
2021/08/16 13:04:38;;;;;;;3.13;1.10;;;;;;;23.73;37.87;99386.75;10410047;28;20088;-60
2021/08/16 13:09:40;;;;;;;3.25;1.23;;;;;;;23.54;38.74;99373.16;10415230;28;20140;-60
2021/08/16 13:14:58;;;;;;;3.85;1.20;;;;;;;23.71;38.87;99370.09;10407461;28;20053;-60
2021/08/16 13:20:01;;;;;;;8.35;1.40;;;;;;;23.63;38.68;99369.38;10425535;28;20052;-60
2021/08/16 13:25:05;;;;;;;5.68;1.20;;;;;;;23.76;38.36;99365.00;10407053;28;20045;-60
2021/08/16 13:30:09;;;;;;;3.78;1.20;;;;;;;23.77;38.51;99355.97;10406927;28;20124;-60
2021/08/16 13:35:11;;;;;;;6.72;1.52;;;;;;;23.72;38.90;99369.06;10436293;28;20081;-60
2021/08/16 13:40:14;;;;;;;3.10;1.00;;;;;;;23.80;39.09;99363.59;10441284;28;20077;-60
2021/08/16 13:45:16;;;;;;;6.30;1.30;;;;;;;23.39;39.92;99373.97;10407036;28;20076;-61
2021/08/16 13:50:18;;;;;;;6.10;1.38;;;;;;;23.19;40.74;99382.75;10425412;28;20120;-60
2021/08/16 13:55:20;;;;;;;3.63;1.20;;;;;;;23.05;40.71;99376.41;10419638;28;20144;-60
2021/08/16 14:00:22;;;;;;;2.28;1.17;;;;;;;23.15;40.70;99381.47;10435767;28;20124;-60
2021/08/16 14:05:24;;;;;;;14.50;1.88;;;;;;;22.67;42.84;99452.94;10430108;28;20045;-62
2021/08/16 14:10:25;;;;;;;7.22;1.67;;;;;;;21.40;48.65;99482.81;10462379;28;20505;-61
2021/08/16 14:15:27;;;;;;;3.22;1.30;;;;;;;20.69;51.55;99496.03;10423936;28;20087;-61
2021/08/16 14:20:29;;;;;;;1.90;1.30;;;;;;;20.29;53.23;99512.72;10405323;28;20708;-61
2021/08/16 14:25:31;;;;;;;5.43;1.60;;;;;;;20.22;53.36;99516.19;10479918;28;20098;-61
2021/08/16 14:30:36;;;;;;;4.55;2.30;;;;;;;19.74;54.37;99527.47;10456225;28;20129;-61
2021/08/16 14:35:38;;;;;;;6.55;4.28;;;;;;;19.30;54.65;99537.34;10411345;28;20513;-61
2021/08/16 14:40:40;;;;;;;10.32;6.70;;;;;;;19.30;52.29;99536.50;10407325;28;20041;-61
2021/08/16 14:45:42;;;;;;;9.40;6.85;;;;;;;19.71;52.29;99537.56;10470979;28;20947;-61
2021/08/16 14:50:45;;;;;;;9.60;7.60;;;;;;;19.86;50.83;99541.31;10477717;28;20080;-61
2021/08/16 14:55:47;;;;;;;13.00;9.07;;;;;;;19.93;49.92;99539.69;10487687;28;20123;-60
2021/08/16 15:00:49;;;;;;;12.07;8.25;;;;;;;19.75;49.55;99555.66;10466933;28;20045;-60
2021/08/16 15:06:04;;;;;;;14.98;9.13;;;;;;;19.52;50.81;99561.69;10439940;28;20083;-61
2021/08/16 15:11:07;;;;;;;14.25;10.45;;;;;;;19.44;50.60;99573.06;10443216;28;20075;-60
2021/08/16 15:16:09;;;;;;;16.75;11.02;;;;;;;19.05;49.86;99587.72;10444479;28;20098;-61
2021/08/16 15:21:12;;;;;;;15.80;11.00;;;;;;;18.86;50.54;99586.03;10435404;28;20049;-61
2021/08/16 15:26:13;;;;;;;17.00;12.10;;;;;;;18.95;50.41;99586.94;10406166;28;20133;-61
2021/08/16 15:31:15;;;;;;;18.65;12.68;;;;;;;18.77;50.46;99589.56;10403982;28;20129;-61
2021/08/16 15:36:17;;;;;;;18.75;12.68;;;;;;;18.68;50.42;99585.19;10403021;28;20086;-61
2021/08/16 15:41:20;;;;;;;18.50;12.52;;;;;;;18.84;49.41;99595.94;10410420;28;20143;-61
2021/08/16 15:46:22;;;;;;;16.98;12.60;;;;;;;19.17;48.80;99600.56;10444614;28;20539;-61
2021/08/16 15:51:24;;;;;;;16.20;11.95;;;;;;;19.45;48.87;99593.31;10442962;28;20047;-60
2021/08/16 15:56:25;;;;;;;18.77;12.57;;;;;;;19.48;48.33;99615.03;10416255;28;20164;-61
2021/08/16 16:01:27;;;;;;;15.27;11.45;;;;;;;19.15;48.82;99615.81;10434934;28;20076;-60
2021/08/16 16:06:29;;;;;;;17.90;12.18;;;;;;;19.31;49.05;99615.91;10427031;28;20075;-61
2021/08/16 16:11:32;;;;;;;14.82;11.82;;;;;;;19.53;48.59;99619.88;10439645;28;20072;-60
2021/08/16 16:16:34;;;;;;;15.93;12.13;;;;;;;19.44;48.68;99632.25;10435930;28;20100;-60
2021/08/16 16:21:37;;;;;;;17.15;12.40;;;;;;;19.63;48.17;99636.53;10431184;28;20051;-60
2021/08/16 16:26:39;;;;;;;17.95;12.55;;;;;;;19.45;48.51;99644.53;10470584;28;20140;-61
2021/08/16 16:31:41;;;;;;;16.58;12.40;;;;;;;19.13;49.13;99649.59;10471542;28;20143;-61
2021/08/16 16:36:43;;;;;;;17.83;11.80;;;;;;;19.11;49.52;99651.56;10467666;28;20548;-60
2021/08/16 16:41:45;;;;;;;18.08;12.10;;;;;;;19.14;49.33;99661.00;10446889;28;20152;-60
2021/08/16 16:46:47;;;;;;;17.33;11.93;;;;;;;19.17;49.10;99663.34;10445521;28;20454;-60
2021/08/16 16:51:49;;;;;;;17.25;12.20;;;;;;;18.99;49.74;99665.97;10477640;28;20076;-60
2021/08/16 16:56:50;;;;;;;17.27;10.95;;;;;;;18.84;49.75;99670.13;10450915;28;20125;-60
2021/08/16 17:01:52;;;;;;;14.63;9.52;;;;;;;18.43;51.98;99707.75;10481934;28;20551;-60
2021/08/16 17:06:54;;;;;;;14.82;8.82;;;;;;;17.97;53.34;99728.91;10456506;28;20076;-60
2021/08/16 17:11:56;;;;;;;12.95;7.78;;;;;;;17.68;54.14;99707.81;10481770;28;20076;-60
2021/08/16 17:16:58;;;;;;;10.07;7.18;;;;;;;17.43;54.85;99733.03;10486643;28;20135;-60
2021/08/16 17:22:00;;;;;;;9.98;5.13;;;;;;;17.25;53.96;99750.53;10475268;28;20088;-60
2021/08/16 17:27:02;;;;;;;7.70;4.38;;;;;;;17.12;53.81;99749.94;10453358;28;20135;-60
2021/08/16 17:32:05;;;;;;;7.22;3.47;;;;;;;17.12;51.82;99776.38;10484279;28;20101;-60
2021/08/16 17:37:10;;;;;;;11.02;3.90;;;;;;;16.85;53.29;99777.00;10484399;28;20076;-60
2021/08/16 17:42:12;;;;;;;7.15;3.85;;;;;;;16.87;52.84;99776.91;10442918;28;20141;-60
2021/08/16 17:47:15;;;;;;;7.88;3.80;;;;;;;16.65;54.35;99775.28;10475883;28;20083;-60
2021/08/16 17:52:17;;;;;;;8.73;4.13;;;;;;;16.45;54.69;99785.88;10485696;28;20080;-60
2021/08/16 17:57:18;;;;;;;9.68;4.28;;;;;;;16.13;55.61;99800.03;10486191;28;20109;-60
2021/08/16 18:02:21;;;;;;;9.98;4.55;;;;;;;16.17;56.29;99809.34;10486623;28;20076;-60
2021/08/16 18:07:23;;;;;;;9.27;4.50;;;;;;;16.08;56.58;99822.50;10429315;28;20077;-60
2021/08/16 18:12:25;;;;;;;8.82;4.20;;;;;;;15.81;57.27;99830.06;10455800;28;20445;-61
2021/08/16 18:17:27;;;;;;;10.18;5.05;;;;;;;15.69;58.05;99837.19;10456529;28;20151;-60
2021/08/16 18:22:30;;;;;;;7.72;4.10;;;;;;;15.63;58.79;99844.75;10430355;28;20045;-60
2021/08/16 18:27:33;;;;;;;8.52;4.10;;;;;;;15.59;59.01;99867.88;10440473;28;20065;-60
2021/08/16 18:32:36;;;;;;;9.93;3.92;;;;;;;15.48;58.75;99857.34;10451026;28;20137;-60
2021/08/16 18:37:38;;;;;;;8.50;4.30;;;;;;;15.38;60.10;99861.69;10461772;28;20080;-60
2021/08/16 18:42:40;;;;;;;8.02;3.85;;;;;;;15.26;60.06;99874.06;10455894;28;20107;-59
2021/08/16 18:47:42;;;;;;;7.13;3.83;;;;;;;15.19;60.22;99872.84;10475767;28;20080;-61
2021/08/16 18:52:44;;;;;;;7.90;3.45;;;;;;;15.17;59.87;99874.78;10461278;28;20047;-59
2021/08/16 18:57:47;;;;;;;7.57;3.75;;;;;;;14.87;60.92;99886.88;10454578;28;20140;-59
2021/08/16 19:02:50;;;;;;;7.38;3.75;;;;;;;14.87;61.52;99898.25;10441215;28;20127;-59
2021/08/16 19:07:52;;;;;;;8.55;4.03;;;;;;;14.83;61.84;99909.16;10417154;28;20049;-59
2021/08/16 19:12:57;;;;;;;8.95;3.78;;;;;;;14.86;60.97;99916.81;10422114;28;20515;-60
2021/08/16 19:17:59;;;;;;;9.80;3.60;;;;;;;14.82;61.24;99910.94;10483536;28;20560;-60
2021/08/16 19:23:01;;;;;;;8.95;4.80;;;;;;;14.75;61.56;99907.13;10459373;28;20049;-59
2021/08/16 19:28:04;;;;;;;6.75;3.72;;;;;;;14.78;62.11;99919.22;10476532;28;20408;-60
2021/08/16 19:33:06;;;;;;;7.90;3.42;;;;;;;14.73;61.41;99927.47;10480059;28;20075;-61
2021/08/16 19:38:10;;;;;;;9.75;3.67;;;;;;;14.64;61.56;99946.56;10485817;28;20040;-61
2021/08/16 19:43:12;;;;;;;9.15;3.60;;;;;;;14.63;61.45;99962.50;10477052;28;20084;-61
2021/08/16 19:48:13;;;;;;;10.32;3.80;;;;;;;14.57;61.53;99959.34;10485745;28;20083;-60
2021/08/16 19:53:15;;;;;;;7.60;3.60;;;;;;;14.40;61.53;99966.81;10485565;28;20083;-61
2021/08/16 19:58:17;;;;;;;10.18;3.88;;;;;;;14.38;62.03;99976.63;10444086;28;20094;-60
2021/08/16 20:03:19;;;;;;;7.57;3.85;;;;;;;14.40;61.33;99988.72;10467036;28;20123;-60
2021/08/16 20:08:21;;;;;;;8.32;3.88;;;;;;;14.47;61.55;99984.66;10452797;28;20408;-61
2021/08/16 20:13:23;;;;;;;9.02;3.97;;;;;;;14.32;61.87;99984.97;10428407;28;20140;-63
2021/08/16 20:18:24;;;;;;;9.00;3.25;;;;;;;14.19;61.71;99997.34;10445387;28;20061;-60
2021/08/16 20:23:26;;;;;;;10.15;3.60;;;;;;;14.27;62.01;100001.09;10452272;28;20045;-60
2021/08/16 20:28:28;;;;;;;10.88;4.07;;;;;;;14.04;62.11;100001.97;10452922;28;20053;-60
2021/08/16 20:33:36;;;;;;;12.32;4.13;;;;;;;13.99;61.97;99993.56;10442102;28;20111;-61
2021/08/16 20:38:38;;;;;;;8.10;3.90;;;;;;;14.16;62.01;100008.94;10430357;28;20139;-62
2021/08/16 20:43:40;;;;;;;10.32;3.72;;;;;;;14.25;61.23;100010.88;10452560;28;20079;-61
2021/08/16 20:48:42;;;;;;;10.38;3.95;;;;;;;14.26;61.99;100017.84;10451871;28;20532;-61
2021/08/16 20:53:44;;;;;;;13.20;4.07;;;;;;;14.08;61.76;100015.72;10431544;28;20553;-61
2021/08/16 20:58:45;;;;;;;10.15;4.10;;;;;;;14.02;61.46;100019.63;10410478;28;20092;-61
2021/08/16 21:03:49;;;;;;;9.07;4.00;;;;;;;13.87;61.66;100033.88;10409913;28;20054;-61
2021/08/16 21:08:52;;;;;;;9.85;3.80;;;;;;;13.73;61.79;100024.34;10434626;28;20156;-62
2021/08/16 21:13:53;;;;;;;14.32;4.68;;;;;;;13.55;61.92;100028.28;10440467;28;20107;-61
2021/08/16 21:18:55;;;;;;;9.90;4.32;;;;;;;13.52;61.56;100031.13;10409420;28;20115;-61
2021/08/16 21:23:57;;;;;;;9.02;4.10;;;;;;;13.48;61.71;100037.53;10408581;28;20120;-61
2021/08/16 21:28:59;;;;;;;10.50;4.60;;;;;;;13.48;61.61;100037.53;10409561;28;20077;-61
2021/08/16 21:34:00;;;;;;;12.90;4.28;;;;;;;13.49;61.41;100039.22;10408839;28;20085;-61
2021/08/16 21:39:02;;;;;;;11.77;4.30;;;;;;;13.53;61.43;100047.72;10440904;28;20055;-61
2021/08/16 21:44:06;;;;;;;11.07;5.10;;;;;;;13.43;62.02;100051.94;10449073;28;20469;-61
2021/08/16 21:49:08;;;;;;;11.35;4.65;;;;;;;13.40;61.85;100060.84;10449022;28;20138;-61
2021/08/16 21:54:09;;;;;;;11.73;4.45;;;;;;;13.32;61.44;100059.69;10448626;28;20053;-61
2021/08/16 21:59:11;;;;;;;12.18;4.72;;;;;;;13.35;61.35;100062.13;10445813;28;20089;-61
2021/08/16 22:04:13;;;;;;;10.55;4.30;;;;;;;13.26;61.25;100066.22;10447749;28;20541;-61
2021/08/16 22:09:15;;;;;;;14.80;4.45;;;;;;;13.19;61.47;100064.13;10448141;28;20139;-61
2021/08/16 22:14:17;;;;;;;11.48;4.55;;;;;;;13.21;61.30;100070.09;10447552;28;20149;-61
2021/08/16 22:19:19;;;;;;;12.75;4.90;;;;;;;13.17;60.65;100061.56;10448262;28;20060;-61
2021/08/16 22:24:21;;;;;;;15.75;5.15;;;;;;;13.05;61.01;100067.66;10436939;28;20217;-61
2021/08/16 22:29:22;;;;;;;14.73;4.78;;;;;;;13.08;61.30;100062.22;10406445;28;20092;-61
2021/08/16 22:34:24;;;;;;;13.30;4.25;;;;;;;13.01;61.34;100071.44;10405516;28;20141;-61
2021/08/16 22:39:26;;;;;;;12.43;4.80;;;;;;;12.92;61.63;100066.81;10405822;28;20053;-61
2021/08/16 22:44:30;;;;;;;14.27;4.72;;;;;;;12.86;61.53;100075.91;10404186;28;20079;-61
2021/08/16 22:49:31;;;;;;;10.02;4.85;;;;;;;12.86;61.63;100075.09;10421244;28;20100;-61
2021/08/16 22:54:33;;;;;;;11.07;5.13;;;;;;;12.66;62.07;100086.91;10404065;28;20088;-61
2021/08/16 22:59:35;;;;;;;11.70;4.35;;;;;;;12.61;61.95;100075.88;10403510;28;20088;-61
2021/08/16 23:04:37;;;;;;;9.82;4.60;;;;;;;12.56;62.33;100079.72;10404544;28;20052;-61
2021/08/16 23:09:39;;;;;;;10.20;4.35;;;;;;;12.47;62.24;100073.31;10436587;28;20148;-61
2021/08/16 23:14:41;;;;;;;13.13;4.50;;;;;;;12.38;62.20;100071.28;10445439;28;20078;-61
2021/08/16 23:19:42;;;;;;;13.60;4.47;;;;;;;12.34;62.51;100072.44;10444511;28;20143;-61